sensor_id;sensor_type;location;lat;lon;timestamp;P1;durP1;ratioP1;P2;durP2;ratioP2
21569;SDS011;57598;50.888;4.746;2023-12-29T16:16:07;105.80;;;97.20;;
21569;SDS011;57598;50.888;4.746;2023-12-29T16:18:38;111.93;;;102.78;;
21569;SDS011;57598;50.888;4.746;2023-12-29T16:21:05;109.43;;;100.93;;
21569;SDS011;57598;50.888;4.746;2023-12-29T16:23:33;111.70;;;102.97;;
21569;SDS011;57598;50.888;4.746;2023-12-29T16:26:04;108.38;;;99.97;;
21569;SDS011;57598;50.888;4.746;2023-12-29T16:28:32;104.50;;;96.10;;
21569;SDS011;57598;50.888;4.746;2023-12-29T16:31:02;104.78;;;96.78;;
21569;SDS011;57598;50.888;4.746;2023-12-29T16:33:34;98.47;;;90.57;;
21569;SDS011;57598;50.888;4.746;2023-12-29T16:36:08;92.75;;;85.25;;
21569;SDS011;57598;50.888;4.746;2023-12-29T16:38:35;80.65;;;73.68;;
21569;SDS011;57598;50.888;4.746;2023-12-29T16:41:04;71.25;;;63.90;;
21569;SDS011;57598;50.888;4.746;2023-12-29T16:43:31;70.47;;;63.50;;
21569;SDS011;57598;50.888;4.746;2023-12-29T16:45:58;63.40;;;56.85;;
21569;SDS011;57598;50.888;4.746;2023-12-29T16:48:26;57.78;;;51.55;;
21569;SDS011;57598;50.888;4.746;2023-12-29T16:50:59;55.95;;;50.05;;
21569;SDS011;57598;50.888;4.746;2023-12-29T16:53:27;53.83;;;48.17;;
21569;SDS011;57598;50.888;4.746;2023-12-29T16:55:54;53.97;;;48.38;;
21569;SDS011;57598;50.888;4.746;2023-12-29T16:58:22;53.65;;;48.05;;
21569;SDS011;57598;50.888;4.746;2023-12-29T17:00:50;51.03;;;45.65;;
21569;SDS011;57598;50.888;4.746;2023-12-29T17:03:18;47.70;;;40.97;;
21569;SDS011;57598;50.888;4.746;2023-12-29T17:05:46;51.72;;;41.80;;
21569;SDS011;57598;50.888;4.746;2023-12-29T17:08:15;54.40;;;41.22;;
21569;SDS011;57598;50.888;4.746;2023-12-29T17:10:42;55.53;;;43.40;;
21569;SDS011;57598;50.888;4.746;2023-12-29T17:13:10;56.83;;;44.45;;
21569;SDS011;57598;50.888;4.746;2023-12-29T17:15:37;59.42;;;45.60;;
21569;SDS011;57598;50.888;4.746;2023-12-29T17:18:05;55.05;;;45.80;;
21569;SDS011;57598;50.888;4.746;2023-12-29T17:20:32;56.78;;;42.55;;
21569;SDS011;57598;50.888;4.746;2023-12-29T17:23:00;55.78;;;44.53;;
21569;SDS011;57598;50.888;4.746;2023-12-29T17:25:29;54.30;;;42.83;;
21569;SDS011;57598;50.888;4.746;2023-12-29T17:27:56;55.88;;;42.65;;
21569;SDS011;57598;50.888;4.746;2023-12-29T17:30:24;57.60;;;43.20;;
21569;SDS011;57598;50.888;4.746;2023-12-29T17:32:51;58.83;;;45.72;;
21569;SDS011;57598;50.888;4.746;2023-12-29T17:35:18;159.25;;;147.15;;
21569;SDS011;57598;50.888;4.746;2023-12-29T17:37:48;126.78;;;115.38;;
21569;SDS011;57598;50.888;4.746;2023-12-29T17:40:16;112.18;;;101.78;;
21569;SDS011;57598;50.888;4.746;2023-12-29T17:42:44;105.40;;;96.25;;
21569;SDS011;57598;50.888;4.746;2023-12-29T17:45:12;102.30;;;92.90;;
21569;SDS011;57598;50.888;4.746;2023-12-29T17:47:39;100.32;;;91.90;;
21569;SDS011;57598;50.888;4.746;2023-12-29T17:50:09;100.38;;;91.10;;
21569;SDS011;57598;50.888;4.746;2023-12-29T17:52:37;103.95;;;95.07;;
21569;SDS011;57598;50.888;4.746;2023-12-29T17:55:05;105.15;;;96.30;;
21569;SDS011;57598;50.888;4.746;2023-12-29T17:57:32;99.93;;;91.55;;
21569;SDS011;57598;50.888;4.746;2023-12-29T18:00:03;110.47;;;101.18;;
21569;SDS011;57598;50.888;4.746;2023-12-29T18:02:31;108.35;;;99.65;;
21569;SDS011;57598;50.888;4.746;2023-12-29T18:04:58;112.20;;;103.53;;
21569;SDS011;57598;50.888;4.746;2023-12-29T18:07:26;117.68;;;107.47;;
21569;SDS011;57598;50.888;4.746;2023-12-29T18:09:53;113.57;;;104.68;;
21569;SDS011;57598;50.888;4.746;2023-12-29T18:12:20;103.93;;;95.93;;
21569;SDS011;57598;50.888;4.746;2023-12-29T18:14:48;112.38;;;103.70;;
21569;SDS011;57598;50.888;4.746;2023-12-29T18:17:19;110.53;;;101.18;;
21569;SDS011;57598;50.888;4.746;2023-12-29T18:19:47;106.75;;;98.63;;
21569;SDS011;57598;50.888;4.746;2023-12-29T18:22:15;86.75;;;78.88;;
21569;SDS011;57598;50.888;4.746;2023-12-29T18:24:42;76.57;;;69.22;;
21569;SDS011;57598;50.888;4.746;2023-12-29T18:27:10;72.05;;;64.38;;
21569;SDS011;57598;50.888;4.746;2023-12-29T18:29:37;66.60;;;59.70;;
21569;SDS011;57598;50.888;4.746;2023-12-29T18:32:06;62.67;;;55.80;;
21569;SDS011;57598;50.888;4.746;2023-12-29T18:34:35;57.53;;;51.63;;
21569;SDS011;57598;50.888;4.746;2023-12-29T18:37:02;63.88;;;51.13;;
21569;SDS011;57598;50.888;4.746;2023-12-29T18:39:30;64.35;;;48.22;;
21569;SDS011;57598;50.888;4.746;2023-12-29T18:41:59;53.92;;;45.83;;
21569;SDS011;57598;50.888;4.746;2023-12-29T18:44:28;59.33;;;48.40;;
21569;SDS011;57598;50.888;4.746;2023-12-29T18:46:56;58.38;;;46.90;;
21569;SDS011;57598;50.888;4.746;2023-12-29T18:49:24;61.30;;;50.55;;
21569;SDS011;57598;50.888;4.746;2023-12-29T18:51:53;58.50;;;48.90;;
21569;SDS011;57598;50.888;4.746;2023-12-29T18:54:21;55.40;;;45.72;;
21569;SDS011;57598;50.888;4.746;2023-12-29T18:56:49;62.67;;;45.20;;
21569;SDS011;57598;50.888;4.746;2023-12-29T18:59:16;67.95;;;48.30;;
21569;SDS011;57598;50.888;4.746;2023-12-29T19:01:44;63.83;;;50.55;;
21569;SDS011;57598;50.888;4.746;2023-12-29T19:04:12;62.88;;;46.03;;
21569;SDS011;57598;50.888;4.746;2023-12-29T19:06:39;56.45;;;45.40;;
21569;SDS011;57598;50.888;4.746;2023-12-29T19:09:08;57.70;;;46.30;;
21569;SDS011;57598;50.888;4.746;2023-12-29T19:11:36;58.92;;;47.50;;
21569;SDS011;57598;50.888;4.746;2023-12-29T19:14:03;55.80;;;45.55;;
21569;SDS011;57598;50.888;4.746;2023-12-29T19:16:31;66.38;;;47.85;;
21569;SDS011;57598;50.888;4.746;2023-12-29T19:18:58;69.57;;;49.95;;
21569;SDS011;57598;50.888;4.746;2023-12-29T19:21:26;60.42;;;47.38;;
21569;SDS011;57598;50.888;4.746;2023-12-29T19:23:53;59.72;;;45.70;;
21569;SDS011;57598;50.888;4.746;2023-12-29T19:26:22;59.67;;;46.28;;
21569;SDS011;57598;50.888;4.746;2023-12-29T19:28:50;55.40;;;45.13;;
21569;SDS011;57598;50.888;4.746;2023-12-29T19:31:18;66.13;;;45.33;;
21569;SDS011;57598;50.888;4.746;2023-12-29T19:33:45;79.80;;;45.40;;
21569;SDS011;57598;50.888;4.746;2023-12-29T19:36:13;60.22;;;46.83;;
21569;SDS011;57598;50.888;4.746;2023-12-29T19:38:41;59.88;;;46.40;;
21569;SDS011;57598;50.888;4.746;2023-12-29T19:41:10;61.45;;;46.15;;
21569;SDS011;57598;50.888;4.746;2023-12-29T19:43:40;60.00;;;44.55;;
21569;SDS011;57598;50.888;4.746;2023-12-29T19:46:07;59.17;;;45.05;;
21569;SDS011;57598;50.888;4.746;2023-12-29T19:48:35;68.03;;;47.42;;
21569;SDS011;57598;50.888;4.746;2023-12-29T19:51:02;60.25;;;45.97;;
21569;SDS011;57598;50.888;4.746;2023-12-29T19:53:31;60.03;;;45.33;;
21569;SDS011;57598;50.888;4.746;2023-12-29T19:55:59;58.97;;;46.75;;
21569;SDS011;57598;50.888;4.746;2023-12-29T19:58:27;59.05;;;44.85;;
21569;SDS011;57598;50.888;4.746;2023-12-29T20:00:56;60.75;;;47.83;;
21569;SDS011;57598;50.888;4.746;2023-12-29T20:03:24;60.90;;;48.20;;
21569;SDS011;57598;50.888;4.746;2023-12-29T20:05:51;63.33;;;46.78;;
21569;SDS011;57598;50.888;4.746;2023-12-29T20:08:19;58.60;;;44.58;;
21569;SDS011;57598;50.888;4.746;2023-12-29T20:10:46;63.05;;;47.08;;
21569;SDS011;57598;50.888;4.746;2023-12-29T20:13:13;55.90;;;43.92;;
21569;SDS011;57598;50.888;4.746;2023-12-29T20:15:41;64.72;;;48.15;;
21569;SDS011;57598;50.888;4.746;2023-12-29T20:18:10;76.25;;;46.22;;
21569;SDS011;57598;50.888;4.746;2023-12-29T20:20:38;63.05;;;46.47;;
21569;SDS011;57598;50.888;4.746;2023-12-29T20:23:06;56.15;;;43.95;;
21569;SDS011;57598;50.888;4.746;2023-12-29T20:25:33;58.17;;;45.83;;
21569;SDS011;57598;50.888;4.746;2023-12-29T20:28:01;61.15;;;46.72;;
21569;SDS011;57598;50.888;4.746;2023-12-29T20:30:28;61.85;;;45.80;;
21569;SDS011;57598;50.888;4.746;2023-12-29T20:32:56;55.58;;;44.42;;
21569;SDS011;57598;50.888;4.746;2023-12-29T20:35:25;59.92;;;46.25;;
21569;SDS011;57598;50.888;4.746;2023-12-29T20:37:53;61.88;;;45.55;;
21569;SDS011;57598;50.888;4.746;2023-12-29T20:40:20;61.60;;;46.58;;
21569;SDS011;57598;50.888;4.746;2023-12-29T20:42:50;74.97;;;48.90;;
21569;SDS011;57598;50.888;4.746;2023-12-29T20:45:17;67.00;;;49.88;;
21569;SDS011;57598;50.888;4.746;2023-12-29T20:47:45;61.55;;;46.17;;
21569;SDS011;57598;50.888;4.746;2023-12-29T20:50:12;59.78;;;46.67;;
21569;SDS011;57598;50.888;4.746;2023-12-29T20:52:41;64.55;;;48.45;;
21569;SDS011;57598;50.888;4.746;2023-12-29T20:57:39;63.58;;;46.75;;
21569;SDS011;57598;50.888;4.746;2023-12-29T21:00:06;68.88;;;45.60;;
21569;SDS011;57598;50.888;4.746;2023-12-29T21:02:34;60.45;;;45.67;;
21569;SDS011;57598;50.888;4.746;2023-12-29T21:05:01;56.95;;;43.92;;
21569;SDS011;57598;50.888;4.746;2023-12-29T21:07:33;60.28;;;44.65;;
21569;SDS011;57598;50.888;4.746;2023-12-29T21:10:03;59.20;;;43.33;;
21569;SDS011;57598;50.888;4.746;2023-12-29T21:12:30;62.65;;;44.50;;
21569;SDS011;57598;50.888;4.746;2023-12-29T21:14:58;65.18;;;51.45;;
21569;SDS011;57598;50.888;4.746;2023-12-29T21:17:25;56.83;;;44.03;;
21569;SDS011;57598;50.888;4.746;2023-12-29T21:19:54;63.53;;;45.00;;
21569;SDS011;57598;50.888;4.746;2023-12-29T21:22:21;59.55;;;46.03;;
21569;SDS011;57598;50.888;4.746;2023-12-29T21:24:50;54.75;;;42.15;;
21569;SDS011;57598;50.888;4.746;2023-12-29T21:27:19;56.50;;;42.20;;
21569;SDS011;57598;50.888;4.746;2023-12-29T21:29:46;63.30;;;45.50;;
21569;SDS011;57598;50.888;4.746;2023-12-29T21:32:19;58.70;;;44.28;;
21569;SDS011;57598;50.888;4.746;2023-12-29T21:34:47;61.55;;;44.72;;
21569;SDS011;57598;50.888;4.746;2023-12-29T21:37:15;62.80;;;43.63;;
21569;SDS011;57598;50.888;4.746;2023-12-29T21:39:42;58.70;;;45.30;;
21569;SDS011;57598;50.888;4.746;2023-12-29T21:42:09;58.92;;;45.15;;
21569;SDS011;57598;50.888;4.746;2023-12-29T21:44:38;53.47;;;42.58;;
21569;SDS011;57598;50.888;4.746;2023-12-29T21:47:07;79.13;;;41.95;;
21569;SDS011;57598;50.888;4.746;2023-12-29T21:49:34;59.00;;;43.80;;
21569;SDS011;57598;50.888;4.746;2023-12-29T21:52:04;57.75;;;43.88;;
21569;SDS011;57598;50.888;4.746;2023-12-29T21:54:32;61.80;;;46.08;;
21569;SDS011;57598;50.888;4.746;2023-12-29T21:56:59;59.33;;;43.80;;
21569;SDS011;57598;50.888;4.746;2023-12-29T21:59:27;54.67;;;42.72;;
21569;SDS011;57598;50.888;4.746;2023-12-29T22:01:55;54.00;;;41.83;;
21569;SDS011;57598;50.888;4.746;2023-12-29T22:04:23;64.03;;;43.70;;
21569;SDS011;57598;50.888;4.746;2023-12-29T22:06:50;57.40;;;42.80;;
21569;SDS011;57598;50.888;4.746;2023-12-29T22:09:18;61.63;;;42.80;;
21569;SDS011;57598;50.888;4.746;2023-12-29T22:11:45;55.95;;;43.40;;
21569;SDS011;57598;50.888;4.746;2023-12-29T22:14:13;53.13;;;41.67;;
21569;SDS011;57598;50.888;4.746;2023-12-29T22:16:40;55.53;;;42.55;;
21569;SDS011;57598;50.888;4.746;2023-12-29T22:19:09;57.83;;;44.53;;
21569;SDS011;57598;50.888;4.746;2023-12-29T22:21:36;61.97;;;44.60;;
21569;SDS011;57598;50.888;4.746;2023-12-29T22:24:05;57.95;;;43.03;;
21569;SDS011;57598;50.888;4.746;2023-12-29T22:26:33;55.58;;;45.05;;
21569;SDS011;57598;50.888;4.746;2023-12-29T22:29:02;57.63;;;42.72;;
21569;SDS011;57598;50.888;4.746;2023-12-29T22:31:29;58.25;;;45.10;;
21569;SDS011;57598;50.888;4.746;2023-12-29T22:33:57;60.38;;;43.83;;
21569;SDS011;57598;50.888;4.746;2023-12-29T22:36:25;53.78;;;43.15;;
21569;SDS011;57598;50.888;4.746;2023-12-29T22:38:53;61.65;;;44.95;;
21569;SDS011;57598;50.888;4.746;2023-12-29T22:41:22;53.35;;;43.28;;
21569;SDS011;57598;50.888;4.746;2023-12-29T22:43:49;54.08;;;43.60;;
21569;SDS011;57598;50.888;4.746;2023-12-29T22:46:17;63.45;;;44.25;;
21569;SDS011;57598;50.888;4.746;2023-12-29T22:48:45;55.35;;;43.47;;
21569;SDS011;57598;50.888;4.746;2023-12-29T22:51:13;61.22;;;45.60;;
21569;SDS011;57598;50.888;4.746;2023-12-29T22:53:42;57.55;;;45.65;;
21569;SDS011;57598;50.888;4.746;2023-12-29T22:56:09;56.30;;;44.55;;
21569;SDS011;57598;50.888;4.746;2023-12-29T22:58:37;57.13;;;43.72;;
21569;SDS011;57598;50.888;4.746;2023-12-29T23:01:04;53.50;;;44.25;;
21569;SDS011;57598;50.888;4.746;2023-12-29T23:03:31;56.03;;;44.03;;
21569;SDS011;57598;50.888;4.746;2023-12-29T23:05:59;60.17;;;43.67;;
21569;SDS011;57598;50.888;4.746;2023-12-29T23:08:26;70.57;;;49.08;;
21569;SDS011;57598;50.888;4.746;2023-12-29T23:10:55;65.78;;;47.80;;
21569;SDS011;57598;50.888;4.746;2023-12-29T23:13:23;69.72;;;48.65;;
21569;SDS011;57598;50.888;4.746;2023-12-29T23:15:53;63.85;;;48.33;;
21569;SDS011;57598;50.888;4.746;2023-12-29T23:18:20;58.10;;;47.78;;
21569;SDS011;57598;50.888;4.746;2023-12-29T23:20:47;80.00;;;48.08;;
21569;SDS011;57598;50.888;4.746;2023-12-29T23:23:14;63.95;;;47.40;;
21569;SDS011;57598;50.888;4.746;2023-12-29T23:25:42;67.07;;;50.08;;
21569;SDS011;57598;50.888;4.746;2023-12-29T23:28:11;59.40;;;48.22;;
21569;SDS011;57598;50.888;4.746;2023-12-29T23:30:38;74.45;;;46.45;;
21569;SDS011;57598;50.888;4.746;2023-12-29T23:33:05;64.10;;;48.28;;
21569;SDS011;57598;50.888;4.746;2023-12-29T23:35:33;85.28;;;50.65;;
21569;SDS011;57598;50.888;4.746;2023-12-29T23:38:00;56.85;;;46.85;;
21569;SDS011;57598;50.888;4.746;2023-12-29T23:40:27;56.53;;;46.53;;
21569;SDS011;57598;50.888;4.746;2023-12-29T23:42:55;55.90;;;46.08;;
21569;SDS011;57598;50.888;4.746;2023-12-29T23:45:23;60.42;;;48.17;;
21569;SDS011;57598;50.888;4.746;2023-12-29T23:47:51;61.92;;;48.53;;
21569;SDS011;57598;50.888;4.746;2023-12-29T23:50:18;61.15;;;47.47;;
21569;SDS011;57598;50.888;4.746;2023-12-29T23:52:46;62.63;;;47.95;;
21569;SDS011;57598;50.888;4.746;2023-12-29T23:55:13;56.25;;;46.70;;
21569;SDS011;57598;50.888;4.746;2023-12-29T23:57:41;63.65;;;50.30;;
